createdAt,value
2017-04-12T00:00:11.111Z,100
2017-04-12T00:01:12.938Z,100
2017-04-12T00:02:14.753Z,100
2017-04-12T00:03:16.596Z,100
2017-04-12T00:04:18.407Z,100
2017-04-12T00:05:20.235Z,100
2017-04-12T00:06:22.056Z,100
2017-04-12T00:07:23.884Z,100
2017-04-12T00:08:25.710Z,100
2017-04-12T00:09:27.544Z,100
2017-04-12T00:10:29.371Z,100
2017-04-12T00:11:31.234Z,100
2017-04-12T00:12:33.059Z,100
2017-04-12T00:13:34.892Z,100
2017-04-12T00:14:36.713Z,100
2017-04-12T00:15:38.877Z,100
2017-04-12T00:16:40.693Z,100
2017-04-12T00:17:42.551Z,100
2017-04-12T00:18:44.709Z,100
2017-04-12T00:19:46.889Z,100
2017-04-12T00:20:48.704Z,100
2017-04-12T00:21:50.863Z,100
2017-04-12T00:22:52.698Z,100
2017-04-12T00:23:54.531Z,100
2017-04-12T00:24:56.355Z,100
2017-04-12T00:25:58.186Z,100
2017-04-12T00:27:00.018Z,100
2017-04-12T00:28:01.855Z,100
2017-04-12T00:29:03.683Z,100
2017-04-12T00:30:05.512Z,100
2017-04-12T00:31:07.338Z,100
2017-04-12T00:32:09.165Z,100
2017-04-12T00:33:11.376Z,100
2017-04-12T00:34:13.205Z,100
2017-04-12T00:35:15.034Z,100
2017-04-12T00:36:16.857Z,100
2017-04-12T00:37:18.682Z,100
2017-04-12T00:38:20.502Z,100
2017-04-12T00:39:22.319Z,100
2017-04-12T00:40:24.153Z,100
2017-04-12T00:41:25.980Z,100
2017-04-12T00:42:27.804Z,100
2017-04-12T00:43:29.659Z,100
2017-04-12T00:44:31.493Z,100
2017-04-12T00:45:33.325Z,100
2017-04-12T00:46:35.152Z,100
2017-04-12T00:47:36.964Z,100
2017-04-12T00:48:38.795Z,100
2017-04-12T00:49:40.972Z,100
2017-04-12T00:50:42.808Z,100
2017-04-12T00:51:44.669Z,100
2017-04-12T00:52:46.493Z,100
2017-04-12T00:53:48.321Z,100
2017-04-12T00:54:50.160Z,100
2017-04-12T00:55:51.988Z,100
2017-04-12T00:56:53.811Z,100
2017-04-12T00:57:55.626Z,100
2017-04-12T00:58:57.457Z,100
2017-04-12T00:59:59.612Z,100
2017-04-12T01:01:02.126Z,100
2017-04-12T01:02:03.950Z,100
2017-04-12T01:03:05.785Z,100
2017-04-12T01:04:07.609Z,100
2017-04-12T01:05:09.437Z,100
2017-04-12T01:06:11.264Z,100
2017-04-12T01:07:13.086Z,100
2017-04-12T01:08:14.906Z,100
2017-04-12T01:09:16.822Z,100
2017-04-12T01:10:18.648Z,100
2017-04-12T01:11:20.481Z,100
2017-04-12T01:12:22.299Z,100
2017-04-12T01:13:24.117Z,100
2017-04-12T01:14:25.947Z,100
2017-04-12T01:15:27.772Z,100
2017-04-12T01:16:29.592Z,100
2017-04-12T01:17:31.422Z,100
2017-04-12T01:18:33.309Z,100
2017-04-12T01:19:35.142Z,100
2017-04-12T01:20:36.962Z,100
2017-04-12T01:21:39.124Z,100
2017-04-12T01:22:40.952Z,100
2017-04-12T01:23:42.795Z,100
2017-04-12T01:24:44.968Z,100
2017-04-12T01:25:46.790Z,100
2017-04-12T01:26:48.618Z,100
2017-04-12T01:27:50.789Z,100
2017-04-12T01:28:52.604Z,100
2017-04-12T01:29:54.434Z,100
2017-04-12T01:30:56.257Z,100
2017-04-12T01:31:58.087Z,100
2017-04-12T01:32:59.909Z,100
2017-04-12T01:34:01.728Z,100
2017-04-12T01:35:03.553Z,100
2017-04-12T01:36:05.370Z,100
2017-04-12T01:37:07.201Z,100
2017-04-12T01:38:09.367Z,100
2017-04-12T01:39:11.199Z,100
2017-04-12T01:40:13.025Z,100
2017-04-12T01:41:14.846Z,100
2017-04-12T01:42:17.013Z,100
2017-04-12T01:43:18.832Z,100
2017-04-12T01:44:20.654Z,100
2017-04-12T01:45:22.490Z,100
2017-04-12T01:46:24.318Z,100
2017-04-12T01:47:26.139Z,100
2017-04-12T01:48:27.971Z,100
2017-04-12T01:49:29.796Z,100
2017-04-12T01:50:31.615Z,100
2017-04-12T01:51:33.777Z,100
2017-04-12T01:52:35.604Z,100
2017-04-12T01:53:37.426Z,100
2017-04-12T01:54:39.940Z,100
2017-04-12T01:55:41.771Z,100
2017-04-12T01:56:43.594Z,100
2017-04-12T01:57:45.421Z,100
2017-04-12T01:58:47.257Z,100
2017-04-12T01:59:49.075Z,100
2017-04-12T02:00:50.898Z,100
2017-04-12T02:01:52.723Z,100
2017-04-12T02:02:54.585Z,100
2017-04-12T02:03:56.406Z,100
2017-04-12T02:04:58.234Z,100
2017-04-12T02:06:00.050Z,100
2017-04-12T02:07:01.879Z,100
2017-04-12T02:08:03.699Z,100
2017-04-12T02:09:05.522Z,100
2017-04-12T02:10:07.345Z,100
2017-04-12T02:11:09.170Z,100
2017-04-12T02:12:10.987Z,100
2017-04-12T02:13:12.823Z,100
2017-04-12T02:14:14.649Z,100
2017-04-12T02:15:16.475Z,100
2017-04-12T02:16:18.304Z,100
2017-04-12T02:17:20.128Z,100
2017-04-12T02:18:21.967Z,100
2017-04-12T02:19:23.802Z,100
2017-04-12T02:20:25.625Z,100
2017-04-12T02:21:27.452Z,100
2017-04-12T02:22:29.277Z,100
2017-04-12T02:23:31.107Z,100
2017-04-12T02:24:32.927Z,100
2017-04-12T02:25:34.753Z,100
2017-04-12T02:26:36.584Z,100
2017-04-12T02:27:38.411Z,100
2017-04-12T02:28:40.237Z,100
2017-04-12T02:29:42.059Z,100
2017-04-12T02:30:43.890Z,100
2017-04-12T02:31:45.713Z,100
2017-04-12T02:32:47.881Z,100
2017-04-12T02:33:49.711Z,100
2017-04-12T02:34:51.532Z,100
2017-04-12T02:35:53.360Z,100
2017-04-12T02:36:55.191Z,100
2017-04-12T02:37:57.011Z,100
2017-04-12T02:38:59.180Z,100
2017-04-12T02:40:01.005Z,100
2017-04-12T02:41:02.826Z,100
2017-04-12T02:42:04.726Z,100
2017-04-12T02:43:06.540Z,100
2017-04-12T02:44:08.372Z,100
2017-04-12T02:45:10.198Z,100
2017-04-12T02:46:12.021Z,100
2017-04-12T02:47:14.177Z,100
2017-04-12T02:48:16.349Z,100
2017-04-12T02:49:18.178Z,100
2017-04-12T02:50:20.009Z,100
2017-04-12T02:51:21.837Z,100
2017-04-12T02:52:23.667Z,100
2017-04-12T02:53:25.840Z,100
2017-04-12T02:54:27.662Z,100
2017-04-12T02:55:29.488Z,100
2017-04-12T02:56:31.639Z,100
2017-04-12T02:57:33.471Z,100
2017-04-12T02:58:35.298Z,100
2017-04-12T02:59:37.112Z,100
2017-04-12T03:00:39.289Z,100
2017-04-12T03:01:41.111Z,100
2017-04-12T03:02:42.941Z,100
2017-04-12T03:03:44.762Z,100
2017-04-12T03:04:46.588Z,100
2017-04-12T03:05:48.408Z,100
2017-04-12T03:06:50.234Z,100
2017-04-12T03:07:52.427Z,100
2017-04-12T03:08:54.253Z,100
2017-04-12T03:09:56.074Z,100
2017-04-12T03:10:57.897Z,100
2017-04-12T03:11:59.723Z,100
2017-04-12T03:13:01.546Z,100
2017-04-12T03:14:03.720Z,100
2017-04-12T03:15:05.546Z,100
2017-04-12T03:16:07.366Z,100
2017-04-12T03:17:09.862Z,100
2017-04-12T03:18:11.685Z,100
2017-04-12T03:19:13.840Z,100
2017-04-12T03:20:15.667Z,100
2017-04-12T03:21:17.498Z,100
2017-04-12T03:22:19.320Z,100
2017-04-12T03:23:21.149Z,100
2017-04-12T03:24:22.965Z,100
2017-04-12T03:25:24.787Z,100
2017-04-12T03:26:26.619Z,100
2017-04-12T03:27:28.447Z,100
2017-04-12T03:28:30.268Z,100
2017-04-12T03:29:32.103Z,100
2017-04-12T03:30:34.274Z,100
2017-04-12T03:31:36.132Z,100
2017-04-12T03:32:37.956Z,100
2017-04-12T03:33:39.784Z,100
2017-04-12T03:34:41.616Z,100
2017-04-12T03:35:43.444Z,100
2017-04-12T03:36:45.279Z,100
2017-04-12T03:37:47.107Z,100
2017-04-12T03:38:48.933Z,100
2017-04-12T03:39:51.098Z,100
2017-04-12T03:40:52.924Z,100
2017-04-12T03:41:54.752Z,100
2017-04-12T03:42:56.576Z,100
2017-04-12T03:43:58.737Z,100
2017-04-12T03:45:00.569Z,99
2017-04-12T03:46:02.400Z,94.2
2017-04-12T03:47:04.223Z,94.2
2017-04-12T03:48:06.061Z,100
2017-04-12T03:49:08.222Z,90.8
2017-04-12T03:50:10.738Z,100
2017-04-12T03:51:12.573Z,100
2017-04-12T03:52:14.401Z,100
2017-04-12T14:18:30.259Z,89
2017-04-12T14:19:32.525Z,89.1
2017-04-12T14:20:34.396Z,89.7
2017-04-12T14:21:36.622Z,89.7
2017-04-12T14:22:38.534Z,90.8
2017-04-12T14:23:40.424Z,90.9
2017-04-12T14:24:42.343Z,89.7
2017-04-12T14:25:44.230Z,89.2
2017-04-12T14:26:46.161Z,90.3
2017-04-12T14:27:48.027Z,90.3
2017-04-12T14:28:49.925Z,90.7
2017-04-12T14:29:52.137Z,90.4
2017-04-12T14:30:54.329Z,89.1
2017-04-12T14:31:56.236Z,90.2
2017-04-12T14:32:58.103Z,89.7
2017-04-12T14:33:59.982Z,90.1
2017-04-12T14:35:02.315Z,90
2017-04-12T14:36:04.218Z,91
2017-04-12T14:37:06.124Z,91.1
2017-04-12T14:38:08.030Z,91
2017-04-12T14:39:09.931Z,90.1
2017-04-12T14:40:11.828Z,89.1
2017-04-12T14:41:13.751Z,90.6
2017-04-12T14:42:15.640Z,89.5
2017-04-12T14:43:17.535Z,85.7
2017-04-12T14:44:19.434Z,86.3
2017-04-12T14:45:21.301Z,86.8
2017-04-12T14:46:23.243Z,87
2017-04-12T14:47:25.113Z,87.2
2017-04-12T14:48:26.979Z,87.7
2017-04-12T14:49:28.842Z,88.5
2017-04-12T14:50:30.721Z,88.9
2017-04-12T14:51:32.597Z,89
2017-04-12T14:52:34.836Z,87.5
2017-04-12T14:53:36.743Z,88.6
2017-04-12T14:54:38.983Z,88.7
2017-04-12T14:55:40.864Z,88.3
2017-04-12T14:56:42.736Z,91.3
2017-04-12T14:57:44.645Z,90.4
2017-04-12T14:58:46.712Z,89.4
2017-04-12T14:59:48.570Z,88.2
2017-04-12T15:00:50.446Z,89
2017-04-12T15:01:52.303Z,90.1
2017-04-12T15:02:54.174Z,92.3
2017-04-12T15:03:56.368Z,90.1
2017-04-12T15:04:58.223Z,90.1
2017-04-12T15:06:00.099Z,90.6
2017-04-12T15:07:01.961Z,89.1
2017-04-12T15:08:03.826Z,89.6
2017-04-12T15:09:05.676Z,89.8
2017-04-12T15:10:07.553Z,90.6
2017-04-12T15:11:09.420Z,90.2
2017-04-12T15:12:11.283Z,88
2017-04-12T15:13:13.153Z,89.4
2017-04-12T15:14:15.019Z,90.5
2017-04-12T15:15:16.885Z,90.4
2017-04-12T15:16:18.744Z,90.6
2017-04-12T15:17:20.600Z,88.7
2017-04-12T15:18:22.456Z,87.8
2017-04-12T15:19:24.315Z,88.8
2017-04-12T15:20:26.173Z,88.5
2017-04-12T15:21:28.388Z,89.5
2017-04-12T15:22:30.234Z,89.3
2017-04-12T15:23:32.098Z,89.2
2017-04-12T15:24:33.960Z,90.3
2017-04-12T15:25:35.820Z,89.8
2017-04-12T15:26:38.036Z,86.9
2017-04-12T15:27:39.891Z,87.6
2017-04-12T15:28:41.753Z,88.3
2017-04-12T15:29:43.948Z,88.7
2017-04-12T15:30:45.797Z,88.2
2017-04-12T15:31:47.653Z,89.5
2017-04-12T15:32:49.858Z,88.7
2017-04-12T15:33:51.736Z,89.7
2017-04-12T15:34:53.931Z,90.2
2017-04-12T15:35:55.788Z,91
2017-04-12T15:36:57.985Z,89.4
2017-04-12T15:37:59.841Z,88.9
2017-04-12T15:39:01.702Z,90.1
2017-04-12T15:40:03.562Z,90.5
2017-04-12T15:41:05.420Z,88.5
2017-04-12T15:42:07.290Z,88.3
2017-04-12T15:43:09.142Z,87.8
2017-04-12T15:44:11.011Z,86.7
2017-04-12T15:45:12.882Z,88
2017-04-12T15:46:14.743Z,89.5
2017-04-12T15:47:16.657Z,88.4
2017-04-12T15:48:18.511Z,88.5
2017-04-12T15:49:20.387Z,88.1
2017-04-12T15:50:22.233Z,90.4
2017-04-12T15:51:24.315Z,91.5
2017-04-12T15:52:26.179Z,90.4
2017-04-12T15:53:28.043Z,89.2
2017-04-12T15:54:29.897Z,89.7
2017-04-12T15:55:31.764Z,88.4
2017-04-12T15:56:34.302Z,89.1
2017-04-12T15:57:36.357Z,91
2017-04-12T15:58:38.206Z,91.1
2017-04-12T15:59:40.061Z,90.6
2017-04-12T16:00:41.916Z,89.3
2017-04-12T16:01:58.033Z,88.1
2017-04-12T16:03:00.765Z,89
2017-04-12T16:04:02.659Z,89.9
2017-04-12T16:05:04.661Z,91.2
2017-04-12T16:06:06.867Z,91.1
2017-04-12T16:07:08.724Z,90.9
2017-04-12T16:08:10.657Z,90
2017-04-12T16:09:12.521Z,90
2017-04-12T16:10:14.382Z,90.6
2017-04-12T16:11:16.239Z,89.3
2017-04-12T16:12:18.324Z,88.7
2017-04-12T16:13:20.182Z,90.9
2017-04-12T16:14:22.044Z,90.6
2017-04-12T16:15:24.268Z,90
2017-04-12T16:16:26.127Z,88.9
2017-04-12T16:17:27.981Z,88.8
2017-04-12T16:18:29.834Z,88.7
2017-04-12T16:19:31.694Z,89
2017-04-12T16:20:33.546Z,90.5
2017-04-12T16:21:35.510Z,91.2
2017-04-12T16:22:37.367Z,89.6
2017-04-12T16:23:39.580Z,90.1
2017-04-12T16:24:41.453Z,89.4
2017-04-12T16:25:43.647Z,88.6
2017-04-12T16:26:45.833Z,89.1
2017-04-12T16:27:47.788Z,88.7
2017-04-12T16:28:49.648Z,88.9
2017-04-12T16:29:51.505Z,89.3
2017-04-12T16:30:53.497Z,89
2017-04-12T16:31:55.346Z,87.9
2017-04-12T16:32:57.205Z,88.3
2017-04-12T16:33:59.065Z,89
2017-04-12T16:35:01.280Z,89.8
2017-04-12T16:36:03.136Z,90.1
2017-04-12T16:37:04.994Z,89.6
2017-04-12T16:38:06.852Z,90
2017-04-12T16:39:08.712Z,89.9
2017-04-12T16:40:10.569Z,90.2
2017-04-12T16:41:12.418Z,89
2017-04-12T16:42:14.276Z,90.3
2017-04-12T16:43:16.142Z,90.9
2017-04-12T16:44:18.039Z,91.2
2017-04-12T16:45:19.903Z,92.3
2017-04-12T16:46:21.776Z,92.1
2017-04-12T16:47:23.649Z,90.5
2017-04-12T16:48:25.516Z,90.7
2017-04-12T16:49:27.731Z,90.8
2017-04-12T16:50:29.581Z,92.5
2017-04-12T16:51:31.442Z,90.8
2017-04-12T16:52:33.643Z,89.6
2017-04-12T16:53:35.489Z,90.4
2017-04-12T16:54:37.347Z,89.8
2017-04-12T16:55:39.540Z,89.8
2017-04-12T16:56:41.746Z,89.2
2017-04-12T16:57:43.598Z,90.3
2017-04-12T16:58:45.452Z,90.3
2017-04-12T16:59:47.310Z,90.6
2017-04-12T17:00:49.162Z,90.9
2017-04-12T17:01:51.026Z,90.8
2017-04-12T17:02:53.261Z,90.7
2017-04-12T17:03:55.114Z,91.1
2017-04-12T17:04:57.362Z,89
2017-04-12T17:05:59.215Z,89.3
2017-04-12T17:07:01.074Z,90.4
2017-04-12T17:08:02.929Z,90.7
2017-04-12T17:09:04.791Z,90.1
2017-04-12T17:10:06.981Z,89.7
2017-04-12T17:11:08.844Z,90.2
2017-04-12T17:12:10.706Z,89.8
2017-04-12T17:13:12.895Z,90.7
2017-04-12T17:14:14.757Z,89.2
2017-04-12T17:15:16.623Z,89.8
2017-04-12T17:16:18.487Z,90
2017-04-12T17:17:20.337Z,90.7
2017-04-12T17:18:22.538Z,89.7
2017-04-12T17:19:24.426Z,89.5
2017-04-12T17:20:26.278Z,89.8
2017-04-12T17:21:28.142Z,89.6
2017-04-12T17:22:30.327Z,90.6
2017-04-12T17:23:32.210Z,88.8
2017-04-12T17:24:34.086Z,87.6
2017-04-12T17:25:35.988Z,89.5
2017-04-12T17:26:38.192Z,90.3
2017-04-12T17:27:40.371Z,91.3
2017-04-12T17:28:42.426Z,90.7
2017-04-12T17:29:44.290Z,89.8
2017-04-12T17:30:46.148Z,90.1
2017-04-12T17:31:48.006Z,89.2
2017-04-12T17:32:49.862Z,88.7
2017-04-12T17:33:51.726Z,89.6
2017-04-12T17:34:53.580Z,89.1
2017-04-12T17:35:55.778Z,89.2
2017-04-12T17:36:57.639Z,90.7
2017-04-12T17:37:59.514Z,88.1
2017-04-12T17:39:01.366Z,87.6
2017-04-12T17:40:03.221Z,87.7
2017-04-12T17:41:05.081Z,90
2017-04-12T17:42:06.937Z,91.2
2017-04-12T17:43:08.794Z,89.1
2017-04-12T17:44:10.988Z,89.4
2017-04-12T17:45:12.840Z,89.9
2017-04-12T17:46:14.732Z,90.7
2017-04-12T17:47:16.589Z,89
2017-04-12T17:48:18.820Z,87.7
2017-04-12T17:49:20.685Z,88.5
2017-04-12T17:50:22.543Z,88.7
2017-04-12T17:51:24.749Z,88.5
2017-04-12T17:52:26.601Z,88.4
2017-04-12T17:53:28.459Z,88
2017-04-12T17:54:30.655Z,88.3
2017-04-12T17:55:32.520Z,89.7
2017-04-12T17:56:34.718Z,90.2
2017-04-12T17:57:36.925Z,90.5
2017-04-12T17:58:38.781Z,88.5
2017-04-12T17:59:40.632Z,88.9
2017-04-12T18:00:42.485Z,90.6
2017-04-12T18:01:44.381Z,89.9
2017-04-12T18:02:46.287Z,89.1
2017-04-12T18:03:48.138Z,88
2017-04-12T18:04:49.992Z,88.9
2017-04-12T18:05:52.201Z,89.3
2017-04-12T18:06:54.391Z,88.6
2017-04-12T18:07:56.257Z,87.9
2017-04-12T18:08:58.136Z,89.2
2017-04-12T18:09:59.989Z,89.6
2017-04-12T18:11:01.860Z,87.2
2017-04-12T18:12:03.716Z,88.9
2017-04-12T18:13:05.575Z,91.2
2017-04-12T18:14:07.429Z,89.4
2017-04-12T18:15:09.290Z,88.4
2017-04-12T18:16:11.143Z,88.7
2017-04-12T18:17:13.002Z,88.1
2017-04-12T18:18:14.861Z,88.2
2017-04-12T18:19:16.713Z,88.2
2017-04-12T18:20:18.567Z,89.9
2017-04-12T18:21:20.421Z,89.8
2017-04-12T18:22:22.271Z,88.2
2017-04-12T18:23:24.123Z,87.3
2017-04-12T18:24:25.988Z,89.3
2017-04-12T18:25:27.842Z,88.8
2017-04-12T18:26:29.694Z,90.2
2017-04-12T18:27:31.557Z,88.8
2017-04-12T18:28:33.406Z,88.6
2017-04-12T18:29:35.270Z,88.7
2017-04-12T18:30:37.140Z,87
2017-04-12T18:31:38.999Z,89.8
2017-04-12T18:32:40.862Z,89.7
2017-04-12T18:33:42.711Z,88.9
2017-04-12T18:34:44.573Z,88
2017-04-12T18:35:46.422Z,90.9
2017-04-12T18:36:48.286Z,92.6
2017-04-12T18:37:50.137Z,93.7
2017-04-12T18:38:51.989Z,94.8
2017-04-12T18:39:53.847Z,95.5
2017-04-12T18:40:56.028Z,96
2017-04-12T18:41:57.882Z,96
2017-04-12T18:42:59.729Z,95.7
2017-04-12T18:44:01.587Z,96.1
2017-04-12T18:45:03.436Z,96.2
2017-04-12T18:46:05.296Z,95.5
2017-04-12T18:47:07.150Z,95.1
2017-04-12T18:48:09.000Z,95.6
2017-04-12T18:49:10.869Z,96.6
2017-04-12T18:50:12.731Z,96.4
2017-04-12T18:51:14.596Z,97.1
2017-04-12T18:52:16.448Z,96.8
2017-04-12T18:53:18.310Z,96.1
2017-04-12T18:54:20.210Z,96.8
2017-04-12T18:55:22.055Z,97.1
2017-04-12T18:56:23.927Z,97.2
2017-04-12T18:57:25.792Z,96.7
2017-04-12T18:58:27.653Z,96.7
2017-04-12T18:59:29.514Z,96.3
2017-04-12T19:00:31.364Z,96.9
2017-04-12T19:01:33.222Z,95.8
2017-04-12T19:02:35.073Z,96.2
2017-04-12T19:03:37.285Z,96.3
2017-04-12T19:04:39.135Z,96.1
2017-04-12T19:05:40.988Z,96.4
2017-04-12T19:06:42.841Z,96
2017-04-12T19:07:44.698Z,96.1
2017-04-12T19:08:46.562Z,95.9
2017-04-12T19:09:48.417Z,95.3
2017-04-12T19:10:50.281Z,95.9
2017-04-12T19:11:52.141Z,96
2017-04-12T19:12:54.003Z,95.6
2017-04-12T19:13:55.859Z,95
2017-04-12T19:14:57.723Z,95.4
2017-04-12T19:15:59.644Z,96.5
2017-04-12T19:17:01.490Z,96.2
2017-04-12T19:18:03.357Z,95.6
2017-04-12T19:19:05.222Z,94.7
2017-04-12T19:20:07.094Z,95
2017-04-12T19:21:08.958Z,95.7
2017-04-12T19:22:10.804Z,95.2
2017-04-12T19:23:13.002Z,94.9
2017-04-12T19:24:14.850Z,94.4
2017-04-12T19:25:16.713Z,94.9
2017-04-12T19:26:18.563Z,94.7
2017-04-12T19:27:20.428Z,94.4
2017-04-12T19:28:22.282Z,94.8
2017-04-12T19:29:24.136Z,95.1
2017-04-12T19:30:26.006Z,95.2
2017-04-12T19:31:27.873Z,95.2
2017-04-12T19:32:29.737Z,95.3
2017-04-12T19:33:31.588Z,95
2017-04-12T19:34:33.455Z,94.9
2017-04-12T19:35:35.311Z,95.5
2017-04-12T19:36:37.508Z,94.9
2017-04-12T19:37:39.709Z,95.4
2017-04-12T19:38:41.568Z,95.5
2017-04-12T19:39:43.436Z,94.9
2017-04-12T19:40:45.647Z,94.9
2017-04-12T19:41:47.495Z,94.6
2017-04-12T19:42:49.353Z,95
2017-04-12T19:43:51.203Z,95.1
2017-04-12T19:44:53.064Z,96.1
2017-04-12T19:45:54.914Z,95.4
2017-04-12T19:46:56.762Z,95
2017-04-12T19:47:58.954Z,95.3
2017-04-12T19:49:00.806Z,95.1
2017-04-12T19:50:03.002Z,94.9
2017-04-12T19:51:04.858Z,95.1
2017-04-12T19:52:06.724Z,94.3
2017-04-12T19:53:08.583Z,94.6
2017-04-12T19:54:10.448Z,94.3
2017-04-12T19:55:12.292Z,94.2
2017-04-12T19:56:14.149Z,93.9
2017-04-12T19:57:16.011Z,94.7
2017-04-12T19:58:17.880Z,95
2017-04-12T19:59:20.077Z,94.8
2017-04-12T20:00:21.939Z,95.5
2017-04-12T20:01:23.791Z,94.9
2017-04-12T20:02:25.649Z,94.8
2017-04-12T20:03:27.493Z,94.2
2017-04-12T20:04:29.353Z,94.2
2017-04-12T20:05:31.204Z,94
2017-04-12T20:06:33.063Z,93.3
2017-04-12T20:07:35.249Z,93.6
2017-04-12T20:08:37.101Z,94.2
2017-04-12T20:09:38.954Z,93.7
2017-04-12T20:10:40.812Z,94.3
2017-04-12T20:11:43.004Z,94.5
2017-04-12T20:12:44.854Z,94.3
2017-04-12T20:13:46.709Z,93.5
2017-04-12T20:14:48.571Z,94.3
2017-04-12T20:15:50.428Z,94.2
2017-04-12T20:16:52.281Z,94.2
2017-04-12T20:17:54.133Z,93.4
2017-04-12T20:18:55.987Z,92.9
2017-04-12T20:19:57.849Z,93.1
2017-04-12T20:20:59.712Z,93.1
2017-04-12T20:22:01.565Z,93.2
2017-04-12T20:23:03.434Z,93.3
2017-04-12T20:24:05.284Z,93.7
2017-04-12T20:25:07.146Z,94.2
2017-04-12T20:26:08.994Z,93.7
2017-04-12T20:27:10.886Z,93.7
2017-04-12T20:28:13.085Z,93.5
2017-04-12T20:29:14.939Z,93.1
2017-04-12T20:30:16.799Z,92.7
2017-04-12T20:31:18.641Z,93
2017-04-12T20:32:20.508Z,93.7
2017-04-12T20:33:22.360Z,93.2
2017-04-12T20:34:24.211Z,92.8
2017-04-12T20:35:26.059Z,93.4
2017-04-12T20:36:27.927Z,93.2
2017-04-12T20:37:29.815Z,93
2017-04-12T20:38:31.683Z,93.3
2017-04-12T20:39:33.541Z,93.1
2017-04-12T20:40:35.401Z,93.1
2017-04-12T20:41:37.265Z,93.4
2017-04-12T20:42:39.121Z,92.8
2017-04-12T20:43:40.972Z,92.8
2017-04-12T20:44:42.837Z,92.9
2017-04-12T20:45:44.694Z,93.1
2017-04-12T20:46:46.549Z,93.3
2017-04-12T20:47:48.411Z,92.7
2017-04-12T20:48:50.283Z,92.3
2017-04-12T20:49:52.137Z,92.3
2017-04-12T20:50:54.049Z,92.6
2017-04-12T20:51:55.900Z,92.7
2017-04-12T20:52:57.746Z,91.7
2017-04-12T20:53:59.602Z,91.4
2017-04-12T20:55:01.466Z,92.1
2017-04-12T20:56:03.678Z,92.2
2017-04-12T20:57:05.536Z,92.2
2017-04-12T20:58:07.396Z,92.4
2017-04-12T20:59:09.577Z,92.3
2017-04-12T21:00:11.430Z,92.2
2017-04-12T21:01:13.286Z,92.6
2017-04-12T21:02:15.137Z,92.7
2017-04-12T21:03:16.990Z,92.6
2017-04-12T21:04:18.844Z,91.1
2017-04-12T21:05:21.058Z,90.8
2017-04-12T21:06:22.923Z,90.6
2017-04-12T21:07:24.766Z,91.3
2017-04-12T21:08:26.620Z,90.8
2017-04-12T21:09:28.473Z,90.6
2017-04-12T21:10:30.328Z,90.2
2017-04-12T21:11:32.183Z,89.5
2017-04-12T21:12:34.366Z,90.1
2017-04-12T21:13:36.222Z,90.5
2017-04-12T21:14:38.074Z,90.4
2017-04-12T21:15:39.934Z,91
2017-04-12T21:16:41.786Z,90.3
2017-04-12T21:17:43.652Z,88.8
2017-04-12T21:18:45.499Z,89.3
2017-04-12T21:19:47.352Z,90.2
2017-04-12T21:20:49.200Z,89.2
2017-04-12T21:21:51.069Z,89.5
2017-04-12T21:22:53.258Z,89.1
2017-04-12T21:23:55.109Z,89
2017-04-12T21:24:56.969Z,88.5
2017-04-12T21:25:58.825Z,88.8
2017-04-12T21:27:01.030Z,88.8
2017-04-12T21:28:02.883Z,89.3
2017-04-12T21:29:04.734Z,90
2017-04-12T21:30:06.593Z,90.9
2017-04-12T21:31:09.147Z,91.1
2017-04-12T21:32:11.005Z,91.4
2017-04-12T21:33:12.864Z,91.3
2017-04-12T21:34:15.053Z,91.2
2017-04-12T21:35:16.908Z,92.2
2017-04-12T21:36:18.767Z,92
2017-04-12T21:37:20.623Z,91.8
2017-04-12T21:38:22.478Z,90.7
2017-04-12T21:39:24.338Z,91.2
2017-04-12T21:40:26.531Z,91.4
2017-04-12T21:41:28.376Z,91
2017-04-12T21:42:30.241Z,91.4
2017-04-12T21:43:32.096Z,91.7
2017-04-12T21:44:33.988Z,91.7
2017-04-12T21:45:35.831Z,91.5
2017-04-12T21:46:38.046Z,92.1
2017-04-12T21:47:39.945Z,91.7
2017-04-12T21:48:41.808Z,91.4
2017-04-12T21:49:43.656Z,91.1
2017-04-12T21:50:45.513Z,90
2017-04-12T21:51:47.367Z,90.9
2017-04-12T21:52:49.226Z,91.5
2017-04-12T21:53:51.407Z,91.4
2017-04-12T21:54:53.596Z,91.5
2017-04-12T21:55:55.450Z,91.3
2017-04-12T21:56:57.315Z,91.2
2017-04-12T21:57:59.164Z,92.1
2017-04-12T21:59:01.016Z,91.5
2017-04-12T22:00:02.868Z,91
2017-04-12T22:01:04.730Z,90.9
2017-04-12T22:02:06.579Z,90.8
2017-04-12T22:03:08.433Z,91.3
2017-04-12T22:04:10.340Z,91.3
2017-04-12T22:05:12.539Z,92
2017-04-12T22:06:14.395Z,92.2
2017-04-12T22:07:16.233Z,92.3
2017-04-12T22:08:18.086Z,91.3
2017-04-12T22:09:19.940Z,91
2017-04-12T22:10:21.802Z,91.4
2017-04-12T22:11:23.644Z,91.2
2017-04-12T22:12:25.835Z,91.1
2017-04-12T22:13:27.691Z,91.3
2017-04-12T22:14:29.550Z,91.6
2017-04-12T22:15:31.393Z,91.3
2017-04-12T22:16:33.247Z,91.3
2017-04-12T22:17:35.143Z,91.6
2017-04-12T22:18:37.000Z,91.6
2017-04-12T22:19:38.854Z,91
2017-04-12T22:20:40.706Z,91
2017-04-12T22:21:42.565Z,91
2017-04-12T22:22:44.417Z,91.1
2017-04-12T22:23:46.274Z,90.8
2017-04-12T22:24:48.120Z,90.8
2017-04-12T22:25:49.970Z,91.4
2017-04-12T22:26:51.824Z,91
2017-04-12T22:27:53.675Z,91.7
2017-04-12T22:28:55.529Z,92.5
2017-04-12T22:29:57.390Z,92.1
2017-04-12T22:30:59.583Z,92.2
2017-04-12T22:32:01.430Z,92.3
2017-04-12T22:33:03.285Z,92.5
2017-04-12T22:34:05.489Z,91.6
2017-04-12T22:35:07.335Z,91.4
2017-04-12T22:36:09.195Z,91.3
2017-04-12T22:37:11.048Z,91.7
2017-04-12T22:38:12.915Z,91.5
2017-04-12T22:39:14.789Z,90.6
2017-04-12T22:40:16.636Z,90.6
2017-04-12T22:41:18.488Z,91.3
2017-04-12T22:42:20.339Z,90.8
2017-04-12T22:43:22.205Z,91.5
2017-04-12T22:44:24.052Z,91.7
2017-04-12T22:45:25.908Z,91.5
2017-04-12T22:46:27.754Z,91.1
2017-04-12T22:47:29.609Z,91.2
2017-04-12T22:48:31.817Z,91.6
2017-04-12T22:49:33.668Z,91
2017-04-12T22:50:35.521Z,90.2
2017-04-12T22:51:37.382Z,90.5
2017-04-12T22:52:39.234Z,91
2017-04-12T22:53:41.080Z,91
2017-04-12T22:54:42.930Z,90.7
2017-04-12T22:55:44.789Z,90.2
2017-04-12T22:56:46.643Z,90.3
2017-04-12T22:57:48.503Z,90.7
2017-04-12T22:58:50.357Z,91
2017-04-12T22:59:52.203Z,90.4
2017-04-12T23:00:54.063Z,90.9
2017-04-12T23:01:55.915Z,90.4
2017-04-12T23:02:57.759Z,91.1
2017-04-12T23:03:59.633Z,90.5
2017-04-12T23:05:01.496Z,90.7
2017-04-12T23:06:03.351Z,90.9
2017-04-12T23:07:05.539Z,90.7
2017-04-12T23:08:07.399Z,91.5
2017-04-12T23:09:09.254Z,91.8
2017-04-12T23:10:11.106Z,92.2
2017-04-12T23:11:12.960Z,92.5
2017-04-12T23:12:14.816Z,92.2
2017-04-12T23:13:16.668Z,91
2017-04-12T23:14:18.522Z,91.9
2017-04-12T23:15:20.377Z,92
2017-04-12T23:16:22.222Z,92.9
2017-04-12T23:17:24.076Z,91.9
2017-04-12T23:18:25.922Z,91.9
2017-04-12T23:19:27.775Z,92.5
2017-04-12T23:20:29.625Z,92.5
2017-04-12T23:21:31.484Z,92.3
2017-04-12T23:22:33.341Z,92
2017-04-12T23:23:35.240Z,92.1
2017-04-12T23:24:37.435Z,92.3
2017-04-12T23:25:39.287Z,92.2
2017-04-12T23:26:41.483Z,92.3
2017-04-12T23:27:43.339Z,91.8
2017-04-12T23:28:45.191Z,91.9
2017-04-12T23:29:47.050Z,91.8
2017-04-12T23:30:48.912Z,91.9
2017-04-12T23:31:50.771Z,91.9
2017-04-12T23:32:52.617Z,91.5
2017-04-12T23:33:54.479Z,91
2017-04-12T23:34:56.330Z,91.7
2017-04-12T23:35:58.191Z,92
2017-04-12T23:37:00.047Z,91.9
2017-04-12T23:38:01.895Z,92.4
2017-04-12T23:39:03.754Z,92.2
2017-04-12T23:40:05.954Z,92.5
2017-04-12T23:41:07.793Z,92.4
2017-04-12T23:42:09.653Z,92.3
2017-04-12T23:43:11.862Z,92
2017-04-12T23:44:13.731Z,91.7
2017-04-12T23:45:15.921Z,91.6
2017-04-12T23:46:18.107Z,91.6
2017-04-12T23:47:19.958Z,91.6
2017-04-12T23:48:22.487Z,91.5
2017-04-12T23:49:24.706Z,91.8
2017-04-12T23:50:26.567Z,92.3
2017-04-12T23:51:28.414Z,92.4
2017-04-12T23:52:30.269Z,91.9
2017-04-12T23:53:32.112Z,91.7
2017-04-12T23:54:33.978Z,91.6
2017-04-12T23:55:35.829Z,90.9
2017-04-12T23:56:38.054Z,90.8
2017-04-12T23:57:39.911Z,91.6
2017-04-12T23:58:41.773Z,91.2
2017-04-12T23:59:43.630Z,90.9
